GMMX/RAK METAR and TAF weather

Enter ICAO airport designator
Station Type Date Time Source
GMMX METAR 2018/01/21 12:00 UTC NOAA

GMMX 211200Z 08003KT 050V110 CAVOK 18/01 Q1030 NOSIG


Station Type Date Time Source
GMMX Decoded METAR 2018/01/21 12:00 UTC NOAA

Marrakech, Morocco (GMMX) 31-37N 008-02W 466M
Jan 21, 2018 - 07:00 AM EST / 2018.01.21 1200 UTC
Wind: from the E (080 degrees) at 3 MPH (3 KT) (direction variable):0
Visibility: greater than 7 mile(s):0
Temperature: 64 F (18 C)
Dew Point: 33 F (1 C)
Relative Humidity: 31%
Pressure (altimeter): 30.42 in. Hg (1030 hPa)
ob: GMMX 211200Z 08003KT 050V110 CAVOK 18/01 Q1030 NOSIG
cycle: 12

Station Type Date Time Source
GMMX TAF 2018/01/21 12:21 UTC NOAA

TAF TAF GMMX 211100Z 2112/2218 06006KT CAVOK


Example: see airport list